sensor_id;sensor_type;location;lat;lon;timestamp;P1;durP1;ratioP1;P2;durP2;ratioP2
3563;SDS011;1796;52.388;13.096;2023-03-01T00:00:53;13.20;;;8.90;;
3563;SDS011;1796;52.388;13.096;2023-03-01T00:03:20;13.20;;;8.37;;
3563;SDS011;1796;52.388;13.096;2023-03-01T00:05:47;20.23;;;9.87;;
3563;SDS011;1796;52.388;13.096;2023-03-01T00:08:13;15.90;;;8.03;;
3563;SDS011;1796;52.388;13.096;2023-03-01T00:10:42;15.20;;;9.00;;
3563;SDS011;1796;52.388;13.096;2023-03-01T00:13:08;12.60;;;7.83;;
3563;SDS011;1796;52.388;13.096;2023-03-01T00:15:37;13.10;;;8.00;;
3563;SDS011;1796;52.388;13.096;2023-03-01T00:18:06;16.67;;;8.20;;
3563;SDS011;1796;52.388;13.096;2023-03-01T00:20:33;15.00;;;7.23;;
3563;SDS011;1796;52.388;13.096;2023-03-01T00:23:00;17.50;;;8.53;;
3563;SDS011;1796;52.388;13.096;2023-03-01T00:25:27;13.27;;;8.70;;
3563;SDS011;1796;52.388;13.096;2023-03-01T00:27:55;10.73;;;6.70;;
3563;SDS011;1796;52.388;13.096;2023-03-01T00:30:22;15.53;;;7.70;;
3563;SDS011;1796;52.388;13.096;2023-03-01T00:32:49;10.60;;;7.17;;
3563;SDS011;1796;52.388;13.096;2023-03-01T00:35:15;12.60;;;7.30;;
3563;SDS011;1796;52.388;13.096;2023-03-01T00:37:42;22.07;;;8.10;;
3563;SDS011;1796;52.388;13.096;2023-03-01T00:40:10;15.37;;;8.20;;
3563;SDS011;1796;52.388;13.096;2023-03-01T00:42:37;11.10;;;6.80;;
3563;SDS011;1796;52.388;13.096;2023-03-01T00:45:06;13.33;;;7.47;;
3563;SDS011;1796;52.388;13.096;2023-03-01T00:47:34;12.73;;;7.10;;
3563;SDS011;1796;52.388;13.096;2023-03-01T00:50:01;12.47;;;7.57;;
3563;SDS011;1796;52.388;13.096;2023-03-01T00:52:27;18.43;;;8.13;;
3563;SDS011;1796;52.388;13.096;2023-03-01T00:54:54;13.30;;;6.27;;
3563;SDS011;1796;52.388;13.096;2023-03-01T00:57:22;12.00;;;6.80;;
3563;SDS011;1796;52.388;13.096;2023-03-01T00:59:49;11.90;;;6.80;;
3563;SDS011;1796;52.388;13.096;2023-03-01T01:02:18;9.53;;;7.20;;
3563;SDS011;1796;52.388;13.096;2023-03-01T01:04:46;9.13;;;6.63;;
3563;SDS011;1796;52.388;13.096;2023-03-01T01:07:13;14.20;;;7.27;;
3563;SDS011;1796;52.388;13.096;2023-03-01T01:09:40;12.20;;;7.23;;
3563;SDS011;1796;52.388;13.096;2023-03-01T01:12:08;9.67;;;7.20;;
3563;SDS011;1796;52.388;13.096;2023-03-01T01:14:35;13.07;;;7.60;;
3563;SDS011;1796;52.388;13.096;2023-03-01T01:17:02;18.80;;;8.37;;
3563;SDS011;1796;52.388;13.096;2023-03-01T01:19:30;18.20;;;8.10;;
3563;SDS011;1796;52.388;13.096;2023-03-01T01:21:57;12.60;;;8.00;;
3563;SDS011;1796;52.388;13.096;2023-03-01T01:24:24;10.80;;;7.43;;
3563;SDS011;1796;52.388;13.096;2023-03-01T01:26:51;14.63;;;7.30;;
3563;SDS011;1796;52.388;13.096;2023-03-01T01:29:18;11.43;;;6.80;;
3563;SDS011;1796;52.388;13.096;2023-03-01T01:31:45;14.20;;;7.13;;
3563;SDS011;1796;52.388;13.096;2023-03-01T01:34:13;11.63;;;7.33;;
3563;SDS011;1796;52.388;13.096;2023-03-01T01:36:43;18.37;;;7.53;;
3563;SDS011;1796;52.388;13.096;2023-03-01T01:39:13;14.43;;;7.03;;
3563;SDS011;1796;52.388;13.096;2023-03-01T01:41:40;11.00;;;6.57;;
3563;SDS011;1796;52.388;13.096;2023-03-01T01:44:12;13.07;;;8.00;;
3563;SDS011;1796;52.388;13.096;2023-03-01T01:46:41;11.50;;;6.60;;
3563;SDS011;1796;52.388;13.096;2023-03-01T01:49:14;13.53;;;6.80;;
3563;SDS011;1796;52.388;13.096;2023-03-01T01:51:47;11.10;;;7.17;;
3563;SDS011;1796;52.388;13.096;2023-03-01T01:54:18;13.00;;;7.40;;
3563;SDS011;1796;52.388;13.096;2023-03-01T01:56:48;9.97;;;7.30;;
3563;SDS011;1796;52.388;13.096;2023-03-01T01:59:18;13.30;;;7.23;;
3563;SDS011;1796;52.388;13.096;2023-03-01T02:01:49;12.87;;;7.67;;
3563;SDS011;1796;52.388;13.096;2023-03-01T02:04:16;19.30;;;7.00;;
3563;SDS011;1796;52.388;13.096;2023-03-01T02:06:44;15.07;;;7.10;;
3563;SDS011;1796;52.388;13.096;2023-03-01T02:09:18;12.93;;;7.33;;
3563;SDS011;1796;52.388;13.096;2023-03-01T02:11:48;11.90;;;8.23;;
3563;SDS011;1796;52.388;13.096;2023-03-01T02:14:16;16.13;;;7.63;;
3563;SDS011;1796;52.388;13.096;2023-03-01T02:16:43;11.77;;;7.63;;
3563;SDS011;1796;52.388;13.096;2023-03-01T02:19:13;11.53;;;6.90;;
3563;SDS011;1796;52.388;13.096;2023-03-01T02:21:58;10.97;;;6.87;;
3563;SDS011;1796;52.388;13.096;2023-03-01T02:24:31;15.90;;;8.40;;
3563;SDS011;1796;52.388;13.096;2023-03-01T02:27:07;17.37;;;8.33;;
3563;SDS011;1796;52.388;13.096;2023-03-01T02:29:36;12.03;;;7.43;;
3563;SDS011;1796;52.388;13.096;2023-03-01T02:32:03;11.60;;;7.30;;
3563;SDS011;1796;52.388;13.096;2023-03-01T02:34:30;13.87;;;8.23;;
3563;SDS011;1796;52.388;13.096;2023-03-01T02:37:00;15.20;;;7.53;;
3563;SDS011;1796;52.388;13.096;2023-03-01T02:39:30;11.30;;;6.97;;
3563;SDS011;1796;52.388;13.096;2023-03-01T02:42:00;18.60;;;7.50;;
3563;SDS011;1796;52.388;13.096;2023-03-01T02:44:30;13.47;;;7.37;;
3563;SDS011;1796;52.388;13.096;2023-03-01T02:46:58;14.97;;;6.60;;
3563;SDS011;1796;52.388;13.096;2023-03-01T02:49:29;12.53;;;6.97;;
3563;SDS011;1796;52.388;13.096;2023-03-01T02:52:07;13.00;;;7.40;;
3563;SDS011;1796;52.388;13.096;2023-03-01T02:55:06;18.23;;;7.20;;
3563;SDS011;1796;52.388;13.096;2023-03-01T02:57:37;12.13;;;7.20;;
3563;SDS011;1796;52.388;13.096;2023-03-01T03:00:08;10.83;;;7.40;;
3563;SDS011;1796;52.388;13.096;2023-03-01T03:02:45;16.93;;;8.07;;
3563;SDS011;1796;52.388;13.096;2023-03-01T03:05:14;12.27;;;7.00;;
3563;SDS011;1796;52.388;13.096;2023-03-01T03:07:44;10.80;;;7.93;;
3563;SDS011;1796;52.388;13.096;2023-03-01T03:10:13;12.27;;;8.03;;
3563;SDS011;1796;52.388;13.096;2023-03-01T03:12:41;11.03;;;7.00;;
3563;SDS011;1796;52.388;13.096;2023-03-01T03:15:09;10.63;;;6.70;;
3563;SDS011;1796;52.388;13.096;2023-03-01T03:17:38;8.73;;;6.50;;
3563;SDS011;1796;52.388;13.096;2023-03-01T03:20:09;12.50;;;7.40;;
3563;SDS011;1796;52.388;13.096;2023-03-01T03:22:37;12.53;;;7.20;;
3563;SDS011;1796;52.388;13.096;2023-03-01T03:25:05;13.60;;;7.80;;
3563;SDS011;1796;52.388;13.096;2023-03-01T03:27:35;15.00;;;7.97;;
3563;SDS011;1796;52.388;13.096;2023-03-01T03:30:03;14.83;;;7.63;;
3563;SDS011;1796;52.388;13.096;2023-03-01T03:32:33;14.03;;;7.70;;
3563;SDS011;1796;52.388;13.096;2023-03-01T03:35:01;10.43;;;7.13;;
3563;SDS011;1796;52.388;13.096;2023-03-01T03:37:35;13.57;;;6.80;;
3563;SDS011;1796;52.388;13.096;2023-03-01T03:40:33;17.80;;;7.70;;
3563;SDS011;1796;52.388;13.096;2023-03-01T03:43:01;12.23;;;7.83;;
3563;SDS011;1796;52.388;13.096;2023-03-01T03:45:27;13.50;;;8.00;;
3563;SDS011;1796;52.388;13.096;2023-03-01T03:47:54;18.00;;;8.13;;
3563;SDS011;1796;52.388;13.096;2023-03-01T03:50:21;16.03;;;7.57;;
3563;SDS011;1796;52.388;13.096;2023-03-01T03:52:49;10.40;;;6.50;;
3563;SDS011;1796;52.388;13.096;2023-03-01T03:55:16;10.80;;;7.00;;
3563;SDS011;1796;52.388;13.096;2023-03-01T03:57:44;8.13;;;6.20;;
3563;SDS011;1796;52.388;13.096;2023-03-01T04:00:16;10.60;;;6.97;;
3563;SDS011;1796;52.388;13.096;2023-03-01T04:02:45;24.53;;;8.40;;
3563;SDS011;1796;52.388;13.096;2023-03-01T04:05:14;13.53;;;8.30;;
3563;SDS011;1796;52.388;13.096;2023-03-01T04:07:42;14.47;;;8.00;;
3563;SDS011;1796;52.388;13.096;2023-03-01T04:10:12;17.07;;;9.13;;
3563;SDS011;1796;52.388;13.096;2023-03-01T04:12:40;12.40;;;7.50;;
3563;SDS011;1796;52.388;13.096;2023-03-01T04:15:08;13.23;;;7.83;;
3563;SDS011;1796;52.388;13.096;2023-03-01T04:17:38;19.40;;;6.60;;
3563;SDS011;1796;52.388;13.096;2023-03-01T04:20:07;21.27;;;6.47;;
3563;SDS011;1796;52.388;13.096;2023-03-01T04:22:36;12.50;;;7.37;;
3563;SDS011;1796;52.388;13.096;2023-03-01T04:25:03;13.23;;;7.87;;
3563;SDS011;1796;52.388;13.096;2023-03-01T04:27:32;9.13;;;6.90;;
3563;SDS011;1796;52.388;13.096;2023-03-01T04:29:59;11.23;;;7.13;;
3563;SDS011;1796;52.388;13.096;2023-03-01T04:32:26;14.53;;;8.17;;
3563;SDS011;1796;52.388;13.096;2023-03-01T04:34:53;15.93;;;8.37;;
3563;SDS011;1796;52.388;13.096;2023-03-01T04:37:20;22.90;;;7.90;;
3563;SDS011;1796;52.388;13.096;2023-03-01T04:39:49;15.67;;;9.33;;
3563;SDS011;1796;52.388;13.096;2023-03-01T04:42:15;12.47;;;7.23;;
3563;SDS011;1796;52.388;13.096;2023-03-01T04:44:44;14.03;;;7.70;;
3563;SDS011;1796;52.388;13.096;2023-03-01T04:47:11;11.00;;;7.87;;
3563;SDS011;1796;52.388;13.096;2023-03-01T04:49:38;10.87;;;7.20;;
3563;SDS011;1796;52.388;13.096;2023-03-01T04:52:05;12.33;;;7.20;;
3563;SDS011;1796;52.388;13.096;2023-03-01T04:54:32;11.30;;;7.87;;
3563;SDS011;1796;52.388;13.096;2023-03-01T04:57:00;11.27;;;7.00;;
3563;SDS011;1796;52.388;13.096;2023-03-01T04:59:28;16.60;;;9.47;;
3563;SDS011;1796;52.388;13.096;2023-03-01T05:01:56;16.47;;;9.47;;
3563;SDS011;1796;52.388;13.096;2023-03-01T05:04:25;11.87;;;7.70;;
3563;SDS011;1796;52.388;13.096;2023-03-01T05:09:23;13.63;;;8.60;;
3563;SDS011;1796;52.388;13.096;2023-03-01T05:11:50;12.23;;;7.80;;
3563;SDS011;1796;52.388;13.096;2023-03-01T05:14:17;11.77;;;7.73;;
3563;SDS011;1796;52.388;13.096;2023-03-01T05:16:44;13.83;;;8.00;;
3563;SDS011;1796;52.388;13.096;2023-03-01T05:19:12;12.60;;;8.40;;
3563;SDS011;1796;52.388;13.096;2023-03-01T05:21:40;13.20;;;8.00;;
3563;SDS011;1796;52.388;13.096;2023-03-01T05:24:21;24.57;;;7.53;;
3563;SDS011;1796;52.388;13.096;2023-03-01T05:26:48;18.13;;;8.90;;
3563;SDS011;1796;52.388;13.096;2023-03-01T05:29:17;19.93;;;8.60;;
3563;SDS011;1796;52.388;13.096;2023-03-01T05:31:50;14.10;;;7.87;;
3563;SDS011;1796;52.388;13.096;2023-03-01T05:34:22;11.87;;;7.47;;
3563;SDS011;1796;52.388;13.096;2023-03-01T05:36:50;15.03;;;7.50;;
3563;SDS011;1796;52.388;13.096;2023-03-01T05:39:18;15.00;;;7.77;;
3563;SDS011;1796;52.388;13.096;2023-03-01T05:41:47;17.80;;;9.20;;
3563;SDS011;1796;52.388;13.096;2023-03-01T05:44:14;10.70;;;7.27;;
3563;SDS011;1796;52.388;13.096;2023-03-01T05:46:41;13.00;;;7.40;;
3563;SDS011;1796;52.388;13.096;2023-03-01T05:49:08;10.43;;;6.80;;
3563;SDS011;1796;52.388;13.096;2023-03-01T05:51:36;12.17;;;7.03;;
3563;SDS011;1796;52.388;13.096;2023-03-01T05:54:03;12.20;;;7.83;;
3563;SDS011;1796;52.388;13.096;2023-03-01T05:56:32;15.83;;;8.30;;
3563;SDS011;1796;52.388;13.096;2023-03-01T05:58:59;11.77;;;7.50;;
3563;SDS011;1796;52.388;13.096;2023-03-01T06:01:27;18.57;;;7.60;;
3563;SDS011;1796;52.388;13.096;2023-03-01T06:03:54;14.53;;;8.60;;
3563;SDS011;1796;52.388;13.096;2023-03-01T06:06:21;13.77;;;8.80;;
3563;SDS011;1796;52.388;13.096;2023-03-01T06:08:50;18.20;;;7.97;;
3563;SDS011;1796;52.388;13.096;2023-03-01T06:11:17;14.83;;;8.00;;
3563;SDS011;1796;52.388;13.096;2023-03-01T06:13:45;21.50;;;7.83;;
3563;SDS011;1796;52.388;13.096;2023-03-01T06:16:12;15.77;;;8.40;;
3563;SDS011;1796;52.388;13.096;2023-03-01T06:18:40;23.87;;;8.80;;
3563;SDS011;1796;52.388;13.096;2023-03-01T06:21:07;11.80;;;7.80;;
3563;SDS011;1796;52.388;13.096;2023-03-01T06:23:35;26.00;;;9.90;;
3563;SDS011;1796;52.388;13.096;2023-03-01T06:26:06;16.87;;;9.20;;
3563;SDS011;1796;52.388;13.096;2023-03-01T06:28:34;16.00;;;10.80;;
3563;SDS011;1796;52.388;13.096;2023-03-01T06:31:01;19.07;;;10.13;;
3563;SDS011;1796;52.388;13.096;2023-03-01T06:33:28;18.93;;;9.80;;
3563;SDS011;1796;52.388;13.096;2023-03-01T06:35:55;14.07;;;9.03;;
3563;SDS011;1796;52.388;13.096;2023-03-01T06:38:22;19.57;;;9.57;;
3563;SDS011;1796;52.388;13.096;2023-03-01T06:40:53;19.27;;;10.00;;
3563;SDS011;1796;52.388;13.096;2023-03-01T06:43:23;14.13;;;9.13;;
3563;SDS011;1796;52.388;13.096;2023-03-01T06:45:50;25.67;;;11.17;;
3563;SDS011;1796;52.388;13.096;2023-03-01T06:48:17;29.07;;;12.00;;
3563;SDS011;1796;52.388;13.096;2023-03-01T06:50:43;16.00;;;10.20;;
3563;SDS011;1796;52.388;13.096;2023-03-01T06:53:10;18.10;;;9.90;;
3563;SDS011;1796;52.388;13.096;2023-03-01T06:55:37;23.83;;;10.87;;
3563;SDS011;1796;52.388;13.096;2023-03-01T06:58:04;15.40;;;8.40;;
3563;SDS011;1796;52.388;13.096;2023-03-01T07:00:32;19.77;;;9.30;;
3563;SDS011;1796;52.388;13.096;2023-03-01T07:02:59;20.50;;;9.80;;
3563;SDS011;1796;52.388;13.096;2023-03-01T07:05:27;15.60;;;8.83;;
3563;SDS011;1796;52.388;13.096;2023-03-01T07:07:54;14.80;;;8.53;;
3563;SDS011;1796;52.388;13.096;2023-03-01T07:10:21;16.43;;;10.10;;
3563;SDS011;1796;52.388;13.096;2023-03-01T07:12:48;18.90;;;8.90;;
3563;SDS011;1796;52.388;13.096;2023-03-01T07:15:15;17.63;;;9.80;;
3563;SDS011;1796;52.388;13.096;2023-03-01T07:17:44;26.60;;;10.70;;
3563;SDS011;1796;52.388;13.096;2023-03-01T07:20:13;21.67;;;10.83;;
3563;SDS011;1796;52.388;13.096;2023-03-01T07:22:40;18.87;;;11.37;;
3563;SDS011;1796;52.388;13.096;2023-03-01T07:25:08;21.50;;;11.63;;
3563;SDS011;1796;52.388;13.096;2023-03-01T07:27:35;24.23;;;10.93;;
3563;SDS011;1796;52.388;13.096;2023-03-01T07:30:03;16.13;;;11.60;;
3563;SDS011;1796;52.388;13.096;2023-03-01T07:32:30;18.60;;;11.20;;
3563;SDS011;1796;52.388;13.096;2023-03-01T07:34:58;23.03;;;10.50;;
3563;SDS011;1796;52.388;13.096;2023-03-01T07:37:25;21.03;;;12.10;;
3563;SDS011;1796;52.388;13.096;2023-03-01T07:39:52;21.23;;;11.80;;
3563;SDS011;1796;52.388;13.096;2023-03-01T07:42:19;17.87;;;10.40;;
3563;SDS011;1796;52.388;13.096;2023-03-01T07:44:46;25.97;;;12.60;;
3563;SDS011;1796;52.388;13.096;2023-03-01T07:47:13;29.83;;;12.00;;
3563;SDS011;1796;52.388;13.096;2023-03-01T07:49:39;23.00;;;12.23;;
3563;SDS011;1796;52.388;13.096;2023-03-01T07:52:08;16.77;;;11.40;;
3563;SDS011;1796;52.388;13.096;2023-03-01T07:54:36;23.43;;;11.70;;
3563;SDS011;1796;52.388;13.096;2023-03-01T07:57:03;24.43;;;12.13;;
3563;SDS011;1796;52.388;13.096;2023-03-01T07:59:30;21.10;;;12.40;;
3563;SDS011;1796;52.388;13.096;2023-03-01T08:01:57;27.10;;;13.17;;
3563;SDS011;1796;52.388;13.096;2023-03-01T08:04:24;24.13;;;11.70;;
3563;SDS011;1796;52.388;13.096;2023-03-01T08:06:51;28.97;;;11.70;;
3563;SDS011;1796;52.388;13.096;2023-03-01T08:09:20;27.70;;;10.67;;
3563;SDS011;1796;52.388;13.096;2023-03-01T08:11:47;26.10;;;11.57;;
3563;SDS011;1796;52.388;13.096;2023-03-01T08:14:14;13.90;;;9.87;;
3563;SDS011;1796;52.388;13.096;2023-03-01T08:16:41;16.33;;;11.27;;
3563;SDS011;1796;52.388;13.096;2023-03-01T08:19:09;13.00;;;9.57;;
3563;SDS011;1796;52.388;13.096;2023-03-01T08:21:37;10.80;;;8.30;;
3563;SDS011;1796;52.388;13.096;2023-03-01T08:24:05;26.73;;;10.90;;
3563;SDS011;1796;52.388;13.096;2023-03-01T08:26:36;18.07;;;10.50;;
3563;SDS011;1796;52.388;13.096;2023-03-01T08:29:03;17.47;;;10.13;;
3563;SDS011;1796;52.388;13.096;2023-03-01T08:31:31;15.07;;;9.57;;
3563;SDS011;1796;52.388;13.096;2023-03-01T08:34:01;17.27;;;9.90;;
3563;SDS011;1796;52.388;13.096;2023-03-01T08:36:29;11.00;;;9.00;;
3563;SDS011;1796;52.388;13.096;2023-03-01T08:38:57;12.77;;;9.00;;
3563;SDS011;1796;52.388;13.096;2023-03-01T08:41:24;14.43;;;8.70;;
3563;SDS011;1796;52.388;13.096;2023-03-01T08:43:53;17.03;;;8.23;;
3563;SDS011;1796;52.388;13.096;2023-03-01T08:46:23;12.70;;;8.77;;
3563;SDS011;1796;52.388;13.096;2023-03-01T08:48:51;15.90;;;8.60;;
3563;SDS011;1796;52.388;13.096;2023-03-01T08:51:18;19.80;;;7.63;;
3563;SDS011;1796;52.388;13.096;2023-03-01T08:53:46;14.00;;;8.73;;
3563;SDS011;1796;52.388;13.096;2023-03-01T08:56:13;17.13;;;9.13;;
3563;SDS011;1796;52.388;13.096;2023-03-01T08:58:43;14.13;;;8.50;;
3563;SDS011;1796;52.388;13.096;2023-03-01T09:01:12;13.90;;;8.87;;
3563;SDS011;1796;52.388;13.096;2023-03-01T09:03:40;12.40;;;7.23;;
3563;SDS011;1796;52.388;13.096;2023-03-01T09:06:08;9.10;;;7.10;;
3563;SDS011;1796;52.388;13.096;2023-03-01T09:08:35;14.57;;;7.13;;
3563;SDS011;1796;52.388;13.096;2023-03-01T09:11:02;13.07;;;7.80;;
3563;SDS011;1796;52.388;13.096;2023-03-01T09:13:30;11.30;;;7.43;;
3563;SDS011;1796;52.388;13.096;2023-03-01T09:15:57;13.73;;;7.20;;
3563;SDS011;1796;52.388;13.096;2023-03-01T09:18:25;7.70;;;6.37;;
3563;SDS011;1796;52.388;13.096;2023-03-01T09:20:52;11.50;;;7.47;;
3563;SDS011;1796;52.388;13.096;2023-03-01T09:23:21;12.73;;;7.40;;
3563;SDS011;1796;52.388;13.096;2023-03-01T09:25:47;9.33;;;6.87;;
3563;SDS011;1796;52.388;13.096;2023-03-01T09:28:14;8.80;;;7.23;;
3563;SDS011;1796;52.388;13.096;2023-03-01T09:30:41;8.10;;;6.90;;
3563;SDS011;1796;52.388;13.096;2023-03-01T09:33:08;6.83;;;5.90;;
3563;SDS011;1796;52.388;13.096;2023-03-01T09:35:40;8.83;;;5.97;;
3563;SDS011;1796;52.388;13.096;2023-03-01T09:38:12;6.30;;;5.70;;
3563;SDS011;1796;52.388;13.096;2023-03-01T09:40:41;7.70;;;5.87;;
3563;SDS011;1796;52.388;13.096;2023-03-01T09:43:13;6.47;;;5.70;;
3563;SDS011;1796;52.388;13.096;2023-03-01T09:45:47;10.73;;;5.60;;
3563;SDS011;1796;52.388;13.096;2023-03-01T09:48:18;10.90;;;6.10;;
3563;SDS011;1796;52.388;13.096;2023-03-01T09:50:49;7.40;;;5.33;;
3563;SDS011;1796;52.388;13.096;2023-03-01T09:53:18;12.87;;;5.90;;
3563;SDS011;1796;52.388;13.096;2023-03-01T09:55:48;5.70;;;4.83;;
3563;SDS011;1796;52.388;13.096;2023-03-01T09:58:29;7.23;;;5.10;;
3563;SDS011;1796;52.388;13.096;2023-03-01T10:01:08;9.43;;;4.77;;
3563;SDS011;1796;52.388;13.096;2023-03-01T10:03:49;7.33;;;4.70;;
3563;SDS011;1796;52.388;13.096;2023-03-01T10:06:28;17.40;;;5.50;;
3563;SDS011;1796;52.388;13.096;2023-03-01T10:08:56;8.80;;;4.73;;
3563;SDS011;1796;52.388;13.096;2023-03-01T10:11:26;6.07;;;4.67;;
3563;SDS011;1796;52.388;13.096;2023-03-01T10:13:58;4.10;;;3.70;;
3563;SDS011;1796;52.388;13.096;2023-03-01T10:16:33;7.50;;;4.07;;
3563;SDS011;1796;52.388;13.096;2023-03-01T10:19:08;4.60;;;3.97;;
3563;SDS011;1796;52.388;13.096;2023-03-01T10:21:41;8.93;;;4.37;;
3563;SDS011;1796;52.388;13.096;2023-03-01T10:24:12;5.97;;;4.10;;
3563;SDS011;1796;52.388;13.096;2023-03-01T10:26:44;5.30;;;3.40;;
3563;SDS011;1796;52.388;13.096;2023-03-01T10:29:15;6.10;;;3.53;;
3563;SDS011;1796;52.388;13.096;2023-03-01T10:31:43;3.67;;;3.37;;
3563;SDS011;1796;52.388;13.096;2023-03-01T10:34:13;5.23;;;3.60;;
3563;SDS011;1796;52.388;13.096;2023-03-01T10:36:44;3.67;;;2.93;;
3563;SDS011;1796;52.388;13.096;2023-03-01T10:39:15;7.63;;;4.50;;
3563;SDS011;1796;52.388;13.096;2023-03-01T10:42:00;4.73;;;2.93;;
3563;SDS011;1796;52.388;13.096;2023-03-01T10:44:35;4.07;;;3.53;;
3563;SDS011;1796;52.388;13.096;2023-03-01T10:47:11;7.23;;;4.33;;
3563;SDS011;1796;52.388;13.096;2023-03-01T10:49:51;5.47;;;4.77;;
3563;SDS011;1796;52.388;13.096;2023-03-01T10:52:22;4.87;;;3.40;;
3563;SDS011;1796;52.388;13.096;2023-03-01T10:54:51;4.07;;;3.30;;
3563;SDS011;1796;52.388;13.096;2023-03-01T10:57:32;3.97;;;3.53;;
3563;SDS011;1796;52.388;13.096;2023-03-01T11:00:22;4.20;;;3.47;;
3563;SDS011;1796;52.388;13.096;2023-03-01T11:03:01;3.67;;;3.33;;
3563;SDS011;1796;52.388;13.096;2023-03-01T11:05:35;5.17;;;3.83;;
3563;SDS011;1796;52.388;13.096;2023-03-01T11:08:04;4.27;;;3.50;;
3563;SDS011;1796;52.388;13.096;2023-03-01T11:10:31;4.00;;;2.97;;
3563;SDS011;1796;52.388;13.096;2023-03-01T11:13:06;3.90;;;3.23;;
3563;SDS011;1796;52.388;13.096;2023-03-01T11:15:34;4.40;;;3.30;;
3563;SDS011;1796;52.388;13.096;2023-03-01T11:18:02;4.23;;;3.50;;
3563;SDS011;1796;52.388;13.096;2023-03-01T11:20:29;4.77;;;3.67;;
3563;SDS011;1796;52.388;13.096;2023-03-01T11:22:59;10.20;;;3.10;;
3563;SDS011;1796;52.388;13.096;2023-03-01T11:25:32;3.20;;;2.90;;
3563;SDS011;1796;52.388;13.096;2023-03-01T11:28:03;8.40;;;3.80;;
3563;SDS011;1796;52.388;13.096;2023-03-01T11:30:33;3.93;;;3.40;;
3563;SDS011;1796;52.388;13.096;2023-03-01T11:33:08;5.40;;;3.20;;
3563;SDS011;1796;52.388;13.096;2023-03-01T11:35:44;9.00;;;3.70;;
3563;SDS011;1796;52.388;13.096;2023-03-01T11:38:16;3.50;;;3.20;;
3563;SDS011;1796;52.388;13.096;2023-03-01T11:40:49;4.40;;;3.20;;
3563;SDS011;1796;52.388;13.096;2023-03-01T11:43:26;9.33;;;4.20;;
3563;SDS011;1796;52.388;13.096;2023-03-01T11:46:18;9.40;;;3.70;;
3563;SDS011;1796;52.388;13.096;2023-03-01T11:49:11;5.00;;;3.20;;
3563;SDS011;1796;52.388;13.096;2023-03-01T11:51:52;3.23;;;3.03;;
3563;SDS011;1796;52.388;13.096;2023-03-01T11:54:28;6.40;;;3.97;;
3563;SDS011;1796;52.388;13.096;2023-03-01T11:57:10;3.60;;;3.30;;
3563;SDS011;1796;52.388;13.096;2023-03-01T11:59:59;3.60;;;2.90;;
3563;SDS011;1796;52.388;13.096;2023-03-01T12:02:56;5.57;;;3.70;;
3563;SDS011;1796;52.388;13.096;2023-03-01T12:05:50;3.67;;;3.37;;
3563;SDS011;1796;52.388;13.096;2023-03-01T12:08:30;4.57;;;3.30;;
3563;SDS011;1796;52.388;13.096;2023-03-01T12:11:03;3.40;;;3.10;;
3563;SDS011;1796;52.388;13.096;2023-03-01T12:19:41;6.90;;;3.50;;
3563;SDS011;1796;52.388;13.096;2023-03-01T12:22:22;6.23;;;4.30;;
3563;SDS011;1796;52.388;13.096;2023-03-01T12:27:58;11.67;;;3.90;;
3563;SDS011;1796;52.388;13.096;2023-03-01T12:30:42;6.50;;;3.70;;
3563;SDS011;1796;52.388;13.096;2023-03-01T12:33:25;9.20;;;3.60;;
3563;SDS011;1796;52.388;13.096;2023-03-01T12:38:55;3.70;;;3.40;;
3563;SDS011;1796;52.388;13.096;2023-03-01T12:41:39;5.70;;;3.20;;
3563;SDS011;1796;52.388;13.096;2023-03-01T12:44:12;3.77;;;3.37;;
3563;SDS011;1796;52.388;13.096;2023-03-01T12:46:54;9.30;;;3.90;;
3563;SDS011;1796;52.388;13.096;2023-03-01T12:49:33;3.20;;;3.00;;
3563;SDS011;1796;52.388;13.096;2023-03-01T12:52:09;3.97;;;2.97;;
3563;SDS011;1796;52.388;13.096;2023-03-01T12:54:38;3.30;;;2.53;;
3563;SDS011;1796;52.388;13.096;2023-03-01T12:57:07;2.43;;;2.30;;
3563;SDS011;1796;52.388;13.096;2023-03-01T12:59:39;4.37;;;3.33;;
3563;SDS011;1796;52.388;13.096;2023-03-01T13:02:15;3.30;;;2.83;;
3563;SDS011;1796;52.388;13.096;2023-03-01T13:04:52;4.27;;;2.70;;
3563;SDS011;1796;52.388;13.096;2023-03-01T13:07:29;3.63;;;2.90;;
3563;SDS011;1796;52.388;13.096;2023-03-01T13:10:06;11.37;;;2.50;;
3563;SDS011;1796;52.388;13.096;2023-03-01T13:12:57;6.93;;;2.53;;
3563;SDS011;1796;52.388;13.096;2023-03-01T13:15:32;3.03;;;2.80;;
3563;SDS011;1796;52.388;13.096;2023-03-01T13:18:02;2.90;;;2.70;;
3563;SDS011;1796;52.388;13.096;2023-03-01T13:20:31;2.53;;;2.30;;
3563;SDS011;1796;52.388;13.096;2023-03-01T13:23:12;2.17;;;2.07;;
3563;SDS011;1796;52.388;13.096;2023-03-01T13:26:01;3.33;;;2.40;;
3563;SDS011;1796;52.388;13.096;2023-03-01T13:28:46;2.93;;;2.73;;
3563;SDS011;1796;52.388;13.096;2023-03-01T13:34:50;3.27;;;2.20;;
3563;SDS011;1796;52.388;13.096;2023-03-01T13:37:19;2.80;;;2.60;;
3563;SDS011;1796;52.388;13.096;2023-03-01T13:39:48;5.13;;;2.70;;
3563;SDS011;1796;52.388;13.096;2023-03-01T13:42:29;3.80;;;2.87;;
3563;SDS011;1796;52.388;13.096;2023-03-01T13:45:02;5.10;;;3.83;;
3563;SDS011;1796;52.388;13.096;2023-03-01T13:47:32;3.60;;;2.60;;
3563;SDS011;1796;52.388;13.096;2023-03-01T13:50:03;2.80;;;2.60;;
3563;SDS011;1796;52.388;13.096;2023-03-01T13:52:35;6.57;;;3.50;;
3563;SDS011;1796;52.388;13.096;2023-03-01T13:55:06;3.83;;;2.50;;
3563;SDS011;1796;52.388;13.096;2023-03-01T13:57:43;5.40;;;2.90;;
3563;SDS011;1796;52.388;13.096;2023-03-01T14:00:25;5.03;;;2.33;;
3563;SDS011;1796;52.388;13.096;2023-03-01T14:05:57;3.83;;;2.83;;
3563;SDS011;1796;52.388;13.096;2023-03-01T14:08:31;2.73;;;2.50;;
3563;SDS011;1796;52.388;13.096;2023-03-01T14:14:13;3.87;;;2.50;;
3563;SDS011;1796;52.388;13.096;2023-03-01T14:16:59;4.00;;;2.40;;
3563;SDS011;1796;52.388;13.096;2023-03-01T14:19:36;4.07;;;2.83;;
3563;SDS011;1796;52.388;13.096;2023-03-01T14:22:07;7.17;;;3.00;;
3563;SDS011;1796;52.388;13.096;2023-03-01T14:24:46;3.50;;;2.80;;
3563;SDS011;1796;52.388;13.096;2023-03-01T14:27:15;4.20;;;2.27;;
3563;SDS011;1796;52.388;13.096;2023-03-01T14:29:43;3.60;;;2.63;;
3563;SDS011;1796;52.388;13.096;2023-03-01T14:32:11;3.17;;;2.67;;
3563;SDS011;1796;52.388;13.096;2023-03-01T14:34:44;3.30;;;2.97;;
3563;SDS011;1796;52.388;13.096;2023-03-01T14:37:19;2.70;;;2.53;;
3563;SDS011;1796;52.388;13.096;2023-03-01T14:39:47;4.53;;;2.40;;
3563;SDS011;1796;52.388;13.096;2023-03-01T14:42:15;4.90;;;2.87;;
3563;SDS011;1796;52.388;13.096;2023-03-01T14:44:43;3.90;;;3.00;;
3563;SDS011;1796;52.388;13.096;2023-03-01T14:47:14;3.50;;;2.97;;
3563;SDS011;1796;52.388;13.096;2023-03-01T14:49:45;6.10;;;3.20;;
3563;SDS011;1796;52.388;13.096;2023-03-01T14:52:20;2.87;;;2.67;;
3563;SDS011;1796;52.388;13.096;2023-03-01T14:54:51;3.30;;;2.63;;
3563;SDS011;1796;52.388;13.096;2023-03-01T14:57:21;3.37;;;2.73;;
3563;SDS011;1796;52.388;13.096;2023-03-01T14:59:49;3.07;;;2.70;;
3563;SDS011;1796;52.388;13.096;2023-03-01T15:02:18;6.97;;;2.80;;
3563;SDS011;1796;52.388;13.096;2023-03-01T15:04:49;4.63;;;2.00;;
3563;SDS011;1796;52.388;13.096;2023-03-01T15:07:18;2.97;;;2.73;;
3563;SDS011;1796;52.388;13.096;2023-03-01T15:09:56;8.77;;;3.23;;
3563;SDS011;1796;52.388;13.096;2023-03-01T15:12:37;2.77;;;2.57;;
3563;SDS011;1796;52.388;13.096;2023-03-01T15:15:22;3.07;;;2.70;;
3563;SDS011;1796;52.388;13.096;2023-03-01T15:18:14;2.57;;;2.37;;
3563;SDS011;1796;52.388;13.096;2023-03-01T15:20:43;3.10;;;2.90;;
3563;SDS011;1796;52.388;13.096;2023-03-01T15:23:18;2.67;;;2.47;;
3563;SDS011;1796;52.388;13.096;2023-03-01T15:25:48;7.50;;;2.53;;
3563;SDS011;1796;52.388;13.096;2023-03-01T15:28:21;2.93;;;2.07;;
3563;SDS011;1796;52.388;13.096;2023-03-01T15:30:54;3.13;;;2.53;;
3563;SDS011;1796;52.388;13.096;2023-03-01T15:33:31;5.10;;;3.20;;
3563;SDS011;1796;52.388;13.096;2023-03-01T15:36:01;4.93;;;3.10;;